sensor_id;sensor_type;location;lat;lon;timestamp;P1;durP1;ratioP1;P2;durP2;ratioP2
14907;SDS011;7545;52.092;7.006;2023-06-22T00:00:46;7.78;;;6.30;;
14907;SDS011;7545;52.092;7.006;2023-06-22T00:03:11;6.60;;;5.90;;
14907;SDS011;7545;52.092;7.006;2023-06-22T00:05:37;9.55;;;6.93;;
14907;SDS011;7545;52.092;7.006;2023-06-22T00:08:03;7.88;;;6.57;;
14907;SDS011;7545;52.092;7.006;2023-06-22T00:10:30;7.25;;;6.22;;
14907;SDS011;7545;52.092;7.006;2023-06-22T00:12:55;7.65;;;6.28;;
14907;SDS011;7545;52.092;7.006;2023-06-22T00:15:21;7.22;;;6.28;;
14907;SDS011;7545;52.092;7.006;2023-06-22T00:17:47;7.63;;;6.80;;
14907;SDS011;7545;52.092;7.006;2023-06-22T00:20:12;7.18;;;6.40;;
14907;SDS011;7545;52.092;7.006;2023-06-22T00:22:39;8.32;;;7.22;;
14907;SDS011;7545;52.092;7.006;2023-06-22T00:25:06;8.20;;;6.82;;
14907;SDS011;7545;52.092;7.006;2023-06-22T00:27:32;8.85;;;6.85;;
14907;SDS011;7545;52.092;7.006;2023-06-22T00:29:57;9.88;;;7.55;;
14907;SDS011;7545;52.092;7.006;2023-06-22T00:32:23;9.70;;;7.55;;
14907;SDS011;7545;52.092;7.006;2023-06-22T00:34:48;8.75;;;7.75;;
14907;SDS011;7545;52.092;7.006;2023-06-22T00:37:15;8.15;;;7.28;;
14907;SDS011;7545;52.092;7.006;2023-06-22T00:39:41;8.23;;;7.22;;
14907;SDS011;7545;52.092;7.006;2023-06-22T00:42:07;9.75;;;7.68;;
14907;SDS011;7545;52.092;7.006;2023-06-22T00:44:33;9.95;;;8.02;;
14907;SDS011;7545;52.092;7.006;2023-06-22T00:46:59;9.20;;;8.30;;
14907;SDS011;7545;52.092;7.006;2023-06-22T00:49:25;8.63;;;7.70;;
14907;SDS011;7545;52.092;7.006;2023-06-22T00:51:51;9.75;;;7.95;;
14907;SDS011;7545;52.092;7.006;2023-06-22T00:54:17;14.35;;;8.10;;
14907;SDS011;7545;52.092;7.006;2023-06-22T00:56:49;8.82;;;7.55;;
14907;SDS011;7545;52.092;7.006;2023-06-22T00:59:20;10.05;;;7.70;;
14907;SDS011;7545;52.092;7.006;2023-06-22T01:01:46;11.13;;;8.23;;
14907;SDS011;7545;52.092;7.006;2023-06-22T01:04:12;9.00;;;8.10;;
14907;SDS011;7545;52.092;7.006;2023-06-22T01:06:46;10.05;;;7.78;;
14907;SDS011;7545;52.092;7.006;2023-06-22T01:09:25;9.45;;;8.45;;
14907;SDS011;7545;52.092;7.006;2023-06-22T01:12:05;14.93;;;8.70;;
14907;SDS011;7545;52.092;7.006;2023-06-22T01:17:12;11.43;;;8.70;;
14907;SDS011;7545;52.092;7.006;2023-06-22T01:19:45;10.25;;;8.63;;
14907;SDS011;7545;52.092;7.006;2023-06-22T01:22:16;11.70;;;8.63;;
14907;SDS011;7545;52.092;7.006;2023-06-22T01:30:10;9.07;;;8.10;;
14907;SDS011;7545;52.092;7.006;2023-06-22T01:32:39;10.38;;;9.27;;
14907;SDS011;7545;52.092;7.006;2023-06-22T01:35:07;10.38;;;9.00;;
14907;SDS011;7545;52.092;7.006;2023-06-22T01:37:34;12.05;;;9.48;;
14907;SDS011;7545;52.092;7.006;2023-06-22T01:40:02;12.85;;;9.75;;
14907;SDS011;7545;52.092;7.006;2023-06-22T01:42:30;10.50;;;8.93;;
14907;SDS011;7545;52.092;7.006;2023-06-22T01:44:57;10.07;;;9.05;;
14907;SDS011;7545;52.092;7.006;2023-06-22T01:47:24;10.93;;;9.25;;
14907;SDS011;7545;52.092;7.006;2023-06-22T01:49:50;10.80;;;9.30;;
14907;SDS011;7545;52.092;7.006;2023-06-22T01:52:17;13.10;;;9.10;;
14907;SDS011;7545;52.092;7.006;2023-06-22T01:54:43;10.68;;;9.57;;
14907;SDS011;7545;52.092;7.006;2023-06-22T01:57:09;11.63;;;9.20;;
14907;SDS011;7545;52.092;7.006;2023-06-22T02:00:18;10.88;;;9.65;;
14907;SDS011;7545;52.092;7.006;2023-06-22T02:02:25;11.50;;;9.57;;
14907;SDS011;7545;52.092;7.006;2023-06-22T02:04:59;11.27;;;9.05;;
14907;SDS011;7545;52.092;7.006;2023-06-22T02:07:31;13.02;;;9.90;;
14907;SDS011;7545;52.092;7.006;2023-06-22T02:09:59;13.13;;;9.80;;
14907;SDS011;7545;52.092;7.006;2023-06-22T02:12:27;12.00;;;10.32;;
14907;SDS011;7545;52.092;7.006;2023-06-22T02:14:54;14.45;;;10.40;;
14907;SDS011;7545;52.092;7.006;2023-06-22T02:17:20;12.00;;;9.65;;
14907;SDS011;7545;52.092;7.006;2023-06-22T02:19:46;11.38;;;9.52;;
14907;SDS011;7545;52.092;7.006;2023-06-22T02:22:12;11.75;;;10.55;;
14907;SDS011;7545;52.092;7.006;2023-06-22T02:24:38;11.23;;;9.88;;
14907;SDS011;7545;52.092;7.006;2023-06-22T02:27:04;13.15;;;10.25;;
14907;SDS011;7545;52.092;7.006;2023-06-22T02:29:32;11.25;;;10.05;;
14907;SDS011;7545;52.092;7.006;2023-06-22T02:31:57;11.68;;;10.32;;
14907;SDS011;7545;52.092;7.006;2023-06-22T02:34:23;12.43;;;10.80;;
14907;SDS011;7545;52.092;7.006;2023-06-22T02:36:49;12.32;;;10.75;;
14907;SDS011;7545;52.092;7.006;2023-06-22T02:39:21;13.25;;;11.30;;
14907;SDS011;7545;52.092;7.006;2023-06-22T02:41:53;13.32;;;11.18;;
14907;SDS011;7545;52.092;7.006;2023-06-22T02:44:20;13.25;;;11.20;;
14907;SDS011;7545;52.092;7.006;2023-06-22T02:46:46;13.10;;;11.20;;
14907;SDS011;7545;52.092;7.006;2023-06-22T02:49:12;12.57;;;11.27;;
14907;SDS011;7545;52.092;7.006;2023-06-22T02:51:38;11.77;;;10.57;;
14907;SDS011;7545;52.092;7.006;2023-06-22T02:54:11;14.35;;;12.02;;
14907;SDS011;7545;52.092;7.006;2023-06-22T02:56:36;14.65;;;11.65;;
14907;SDS011;7545;52.092;7.006;2023-06-22T02:59:02;15.68;;;11.90;;
14907;SDS011;7545;52.092;7.006;2023-06-22T03:01:28;15.98;;;12.48;;
14907;SDS011;7545;52.092;7.006;2023-06-22T03:03:55;13.40;;;12.02;;
14907;SDS011;7545;52.092;7.006;2023-06-22T03:06:21;14.95;;;12.80;;
14907;SDS011;7545;52.092;7.006;2023-06-22T03:08:48;11.73;;;10.48;;
14907;SDS011;7545;52.092;7.006;2023-06-22T03:11:14;15.52;;;12.38;;
14907;SDS011;7545;52.092;7.006;2023-06-22T03:13:40;13.50;;;11.02;;
14907;SDS011;7545;52.092;7.006;2023-06-22T03:16:05;14.65;;;11.65;;
14907;SDS011;7545;52.092;7.006;2023-06-22T03:18:31;14.85;;;12.55;;
14907;SDS011;7545;52.092;7.006;2023-06-22T03:20:57;13.65;;;11.68;;
14907;SDS011;7545;52.092;7.006;2023-06-22T03:23:22;15.10;;;12.70;;
14907;SDS011;7545;52.092;7.006;2023-06-22T03:25:48;15.32;;;12.35;;
14907;SDS011;7545;52.092;7.006;2023-06-22T03:28:13;13.95;;;12.25;;
14907;SDS011;7545;52.092;7.006;2023-06-22T03:30:39;13.90;;;11.88;;
14907;SDS011;7545;52.092;7.006;2023-06-22T03:33:04;14.00;;;10.93;;
14907;SDS011;7545;52.092;7.006;2023-06-22T03:35:30;14.93;;;12.52;;
14907;SDS011;7545;52.092;7.006;2023-06-22T03:37:56;13.75;;;11.75;;
14907;SDS011;7545;52.092;7.006;2023-06-22T03:40:21;15.82;;;12.88;;
14907;SDS011;7545;52.092;7.006;2023-06-22T03:42:47;13.93;;;11.68;;
14907;SDS011;7545;52.092;7.006;2023-06-22T03:45:13;15.57;;;11.82;;
14907;SDS011;7545;52.092;7.006;2023-06-22T03:47:38;14.55;;;12.05;;
14907;SDS011;7545;52.092;7.006;2023-06-22T03:50:04;14.80;;;11.88;;
14907;SDS011;7545;52.092;7.006;2023-06-22T03:52:31;14.50;;;11.70;;
14907;SDS011;7545;52.092;7.006;2023-06-22T03:54:57;12.90;;;11.57;;
14907;SDS011;7545;52.092;7.006;2023-06-22T03:57:23;15.52;;;12.43;;
14907;SDS011;7545;52.092;7.006;2023-06-22T03:59:48;15.07;;;11.65;;
14907;SDS011;7545;52.092;7.006;2023-06-22T04:02:14;14.02;;;10.95;;
14907;SDS011;7545;52.092;7.006;2023-06-22T04:04:40;17.17;;;11.65;;
14907;SDS011;7545;52.092;7.006;2023-06-22T04:07:05;14.55;;;11.63;;
14907;SDS011;7545;52.092;7.006;2023-06-22T04:09:31;13.15;;;11.75;;
14907;SDS011;7545;52.092;7.006;2023-06-22T04:11:56;14.10;;;11.73;;
14907;SDS011;7545;52.092;7.006;2023-06-22T04:14:22;13.50;;;11.55;;
14907;SDS011;7545;52.092;7.006;2023-06-22T04:16:47;13.75;;;11.43;;
14907;SDS011;7545;52.092;7.006;2023-06-22T04:19:13;13.45;;;11.10;;
14907;SDS011;7545;52.092;7.006;2023-06-22T04:21:44;14.35;;;11.63;;
14907;SDS011;7545;52.092;7.006;2023-06-22T04:24:10;13.75;;;11.18;;
14907;SDS011;7545;52.092;7.006;2023-06-22T04:26:36;15.55;;;10.65;;
14907;SDS011;7545;52.092;7.006;2023-06-22T04:29:03;14.05;;;11.27;;
14907;SDS011;7545;52.092;7.006;2023-06-22T04:31:30;12.38;;;10.70;;
14907;SDS011;7545;52.092;7.006;2023-06-22T04:33:57;12.23;;;10.35;;
14907;SDS011;7545;52.092;7.006;2023-06-22T04:36:30;12.70;;;11.18;;
14907;SDS011;7545;52.092;7.006;2023-06-22T04:39:02;13.57;;;10.63;;
14907;SDS011;7545;52.092;7.006;2023-06-22T04:41:32;14.77;;;10.02;;
14907;SDS011;7545;52.092;7.006;2023-06-22T04:44:07;13.80;;;11.75;;
14907;SDS011;7545;52.092;7.006;2023-06-22T04:46:59;12.45;;;10.63;;
14907;SDS011;7545;52.092;7.006;2023-06-22T04:49:28;10.95;;;9.52;;
14907;SDS011;7545;52.092;7.006;2023-06-22T04:52:07;12.02;;;10.00;;
14907;SDS011;7545;52.092;7.006;2023-06-22T04:54:34;12.20;;;10.57;;
14907;SDS011;7545;52.092;7.006;2023-06-22T04:57:04;12.70;;;9.93;;
14907;SDS011;7545;52.092;7.006;2023-06-22T04:59:34;12.45;;;10.02;;
14907;SDS011;7545;52.092;7.006;2023-06-22T05:02:00;13.77;;;10.73;;
14907;SDS011;7545;52.092;7.006;2023-06-22T05:04:28;16.27;;;10.70;;
14907;SDS011;7545;52.092;7.006;2023-06-22T05:06:56;12.55;;;10.52;;
14907;SDS011;7545;52.092;7.006;2023-06-22T05:09:23;12.82;;;10.18;;
14907;SDS011;7545;52.092;7.006;2023-06-22T05:11:50;13.13;;;10.48;;
14907;SDS011;7545;52.092;7.006;2023-06-22T05:14:16;11.63;;;10.43;;
14907;SDS011;7545;52.092;7.006;2023-06-22T05:16:42;10.25;;;9.05;;
14907;SDS011;7545;52.092;7.006;2023-06-22T05:19:08;12.80;;;9.18;;
14907;SDS011;7545;52.092;7.006;2023-06-22T05:21:34;11.80;;;9.02;;
14907;SDS011;7545;52.092;7.006;2023-06-22T05:23:59;14.63;;;9.50;;
14907;SDS011;7545;52.092;7.006;2023-06-22T05:26:28;11.63;;;9.02;;
14907;SDS011;7545;52.092;7.006;2023-06-22T05:28:54;11.95;;;10.65;;
14907;SDS011;7545;52.092;7.006;2023-06-22T05:31:20;11.90;;;9.63;;
14907;SDS011;7545;52.092;7.006;2023-06-22T05:33:46;11.43;;;9.25;;
14907;SDS011;7545;52.092;7.006;2023-06-22T05:36:13;11.00;;;9.13;;
14907;SDS011;7545;52.092;7.006;2023-06-22T05:38:39;14.60;;;9.35;;
14907;SDS011;7545;52.092;7.006;2023-06-22T05:41:05;12.73;;;9.25;;
14907;SDS011;7545;52.092;7.006;2023-06-22T05:43:30;10.70;;;9.02;;
14907;SDS011;7545;52.092;7.006;2023-06-22T05:45:56;13.65;;;9.57;;
14907;SDS011;7545;52.092;7.006;2023-06-22T05:48:23;10.55;;;9.07;;
14907;SDS011;7545;52.092;7.006;2023-06-22T05:50:49;10.68;;;9.10;;
14907;SDS011;7545;52.092;7.006;2023-06-22T05:53:14;10.02;;;8.45;;
14907;SDS011;7545;52.092;7.006;2023-06-22T05:55:40;12.75;;;9.45;;
14907;SDS011;7545;52.092;7.006;2023-06-22T05:58:06;9.45;;;8.43;;
14907;SDS011;7545;52.092;7.006;2023-06-22T06:00:31;9.43;;;8.43;;
14907;SDS011;7545;52.092;7.006;2023-06-22T06:02:57;12.48;;;8.77;;
14907;SDS011;7545;52.092;7.006;2023-06-22T06:05:28;9.63;;;8.63;;
14907;SDS011;7545;52.092;7.006;2023-06-22T06:07:55;10.63;;;8.23;;
14907;SDS011;7545;52.092;7.006;2023-06-22T06:10:20;10.35;;;8.82;;
14907;SDS011;7545;52.092;7.006;2023-06-22T06:12:46;9.50;;;8.18;;
14907;SDS011;7545;52.092;7.006;2023-06-22T06:15:12;10.00;;;8.35;;
14907;SDS011;7545;52.092;7.006;2023-06-22T06:17:50;13.20;;;8.63;;
14907;SDS011;7545;52.092;7.006;2023-06-22T06:20:18;8.73;;;7.82;;
14907;SDS011;7545;52.092;7.006;2023-06-22T06:22:45;9.00;;;7.78;;
14907;SDS011;7545;52.092;7.006;2023-06-22T06:25:10;10.70;;;8.07;;
14907;SDS011;7545;52.092;7.006;2023-06-22T06:27:41;9.35;;;7.88;;
14907;SDS011;7545;52.092;7.006;2023-06-22T06:30:14;9.48;;;8.23;;
14907;SDS011;7545;52.092;7.006;2023-06-22T06:32:41;9.38;;;7.82;;
14907;SDS011;7545;52.092;7.006;2023-06-22T06:35:08;9.00;;;8.02;;
14907;SDS011;7545;52.092;7.006;2023-06-22T06:37:41;9.10;;;7.50;;
14907;SDS011;7545;52.092;7.006;2023-06-22T06:40:08;9.63;;;8.40;;
14907;SDS011;7545;52.092;7.006;2023-06-22T06:42:39;9.63;;;7.53;;
14907;SDS011;7545;52.092;7.006;2023-06-22T06:45:14;9.25;;;7.60;;
14907;SDS011;7545;52.092;7.006;2023-06-22T06:47:41;7.70;;;6.72;;
14907;SDS011;7545;52.092;7.006;2023-06-22T06:50:08;8.15;;;7.22;;
14907;SDS011;7545;52.092;7.006;2023-06-22T06:52:34;10.00;;;7.88;;
14907;SDS011;7545;52.092;7.006;2023-06-22T06:55:00;10.07;;;7.60;;
14907;SDS011;7545;52.092;7.006;2023-06-22T06:57:26;9.40;;;7.60;;
14907;SDS011;7545;52.092;7.006;2023-06-22T06:59:55;11.15;;;8.75;;
14907;SDS011;7545;52.092;7.006;2023-06-22T07:02:21;11.18;;;7.38;;
14907;SDS011;7545;52.092;7.006;2023-06-22T07:04:48;11.15;;;8.85;;
14907;SDS011;7545;52.092;7.006;2023-06-22T07:07:14;9.00;;;6.95;;
14907;SDS011;7545;52.092;7.006;2023-06-22T07:09:39;9.05;;;7.53;;
14907;SDS011;7545;52.092;7.006;2023-06-22T07:12:05;11.63;;;7.80;;
14907;SDS011;7545;52.092;7.006;2023-06-22T07:14:31;10.32;;;7.28;;
14907;SDS011;7545;52.092;7.006;2023-06-22T07:16:57;9.98;;;7.65;;
14907;SDS011;7545;52.092;7.006;2023-06-22T07:19:29;9.48;;;7.53;;
14907;SDS011;7545;52.092;7.006;2023-06-22T07:21:56;11.88;;;8.35;;
14907;SDS011;7545;52.092;7.006;2023-06-22T07:24:22;14.82;;;8.27;;
14907;SDS011;7545;52.092;7.006;2023-06-22T07:26:48;10.45;;;8.45;;
14907;SDS011;7545;52.092;7.006;2023-06-22T07:29:15;11.82;;;8.05;;
14907;SDS011;7545;52.092;7.006;2023-06-22T07:31:45;8.32;;;7.47;;
14907;SDS011;7545;52.092;7.006;2023-06-22T07:34:12;11.32;;;8.02;;
14907;SDS011;7545;52.092;7.006;2023-06-22T07:36:38;9.20;;;8.00;;
14907;SDS011;7545;52.092;7.006;2023-06-22T07:39:04;9.45;;;7.03;;
14907;SDS011;7545;52.092;7.006;2023-06-22T07:41:30;9.32;;;8.00;;
14907;SDS011;7545;52.092;7.006;2023-06-22T07:43:55;9.05;;;8.00;;
14907;SDS011;7545;52.092;7.006;2023-06-22T07:46:21;8.57;;;7.00;;
14907;SDS011;7545;52.092;7.006;2023-06-22T07:48:47;10.60;;;7.25;;
14907;SDS011;7545;52.092;7.006;2023-06-22T07:51:13;9.65;;;7.00;;
14907;SDS011;7545;52.092;7.006;2023-06-22T07:53:40;8.63;;;6.75;;
14907;SDS011;7545;52.092;7.006;2023-06-22T07:56:09;8.77;;;7.75;;
14907;SDS011;7545;52.092;7.006;2023-06-22T07:58:35;9.07;;;7.68;;
14907;SDS011;7545;52.092;7.006;2023-06-22T08:01:01;10.02;;;7.18;;
14907;SDS011;7545;52.092;7.006;2023-06-22T08:03:27;10.90;;;7.80;;
14907;SDS011;7545;52.092;7.006;2023-06-22T08:05:53;9.77;;;8.35;;
14907;SDS011;7545;52.092;7.006;2023-06-22T08:08:19;9.10;;;7.72;;
14907;SDS011;7545;52.092;7.006;2023-06-22T08:10:44;11.77;;;8.35;;
14907;SDS011;7545;52.092;7.006;2023-06-22T08:13:10;9.77;;;8.43;;
14907;SDS011;7545;52.092;7.006;2023-06-22T08:15:36;8.98;;;7.97;;
14907;SDS011;7545;52.092;7.006;2023-06-22T08:18:01;13.02;;;8.05;;
14907;SDS011;7545;52.092;7.006;2023-06-22T08:20:27;9.00;;;8.10;;
14907;SDS011;7545;52.092;7.006;2023-06-22T08:22:53;8.52;;;7.65;;
14907;SDS011;7545;52.092;7.006;2023-06-22T08:25:22;10.75;;;7.10;;
14907;SDS011;7545;52.092;7.006;2023-06-22T08:27:48;9.85;;;7.95;;
14907;SDS011;7545;52.092;7.006;2023-06-22T08:30:14;8.93;;;7.10;;
14907;SDS011;7545;52.092;7.006;2023-06-22T08:32:40;11.10;;;6.93;;
14907;SDS011;7545;52.092;7.006;2023-06-22T08:35:06;11.15;;;7.63;;
14907;SDS011;7545;52.092;7.006;2023-06-22T08:37:33;10.30;;;8.75;;
14907;SDS011;7545;52.092;7.006;2023-06-22T08:40:00;10.15;;;8.05;;
14907;SDS011;7545;52.092;7.006;2023-06-22T08:42:32;9.77;;;8.32;;
14907;SDS011;7545;52.092;7.006;2023-06-22T08:44:58;11.13;;;8.57;;
14907;SDS011;7545;52.092;7.006;2023-06-22T08:47:24;10.27;;;8.00;;
14907;SDS011;7545;52.092;7.006;2023-06-22T08:49:49;9.05;;;7.30;;
14907;SDS011;7545;52.092;7.006;2023-06-22T08:52:16;10.40;;;7.65;;
14907;SDS011;7545;52.092;7.006;2023-06-22T08:54:43;9.32;;;7.78;;
14907;SDS011;7545;52.092;7.006;2023-06-22T08:57:09;10.68;;;7.25;;
14907;SDS011;7545;52.092;7.006;2023-06-22T08:59:35;6.45;;;5.53;;
14907;SDS011;7545;52.092;7.006;2023-06-22T09:02:01;9.60;;;8.00;;
14907;SDS011;7545;52.092;7.006;2023-06-22T09:04:26;8.05;;;6.75;;
14907;SDS011;7545;52.092;7.006;2023-06-22T09:06:52;10.27;;;9.07;;
14907;SDS011;7545;52.092;7.006;2023-06-22T09:09:18;9.05;;;6.30;;
14907;SDS011;7545;52.092;7.006;2023-06-22T09:11:44;7.97;;;6.43;;
14907;SDS011;7545;52.092;7.006;2023-06-22T09:14:10;8.93;;;7.03;;
14907;SDS011;7545;52.092;7.006;2023-06-22T09:16:36;9.90;;;7.55;;
14907;SDS011;7545;52.092;7.006;2023-06-22T09:19:01;10.63;;;8.77;;
14907;SDS011;7545;52.092;7.006;2023-06-22T09:21:27;11.70;;;9.20;;
14907;SDS011;7545;52.092;7.006;2023-06-22T09:23:54;9.52;;;7.95;;
14907;SDS011;7545;52.092;7.006;2023-06-22T09:26:20;11.68;;;8.95;;
14907;SDS011;7545;52.092;7.006;2023-06-22T09:28:46;10.02;;;8.40;;
14907;SDS011;7545;52.092;7.006;2023-06-22T09:31:12;10.70;;;8.88;;
14907;SDS011;7545;52.092;7.006;2023-06-22T09:33:39;13.57;;;7.53;;
14907;SDS011;7545;52.092;7.006;2023-06-22T09:36:05;10.60;;;9.25;;
14907;SDS011;7545;52.092;7.006;2023-06-22T09:38:34;10.70;;;8.48;;
14907;SDS011;7545;52.092;7.006;2023-06-22T09:41:02;12.70;;;8.75;;
14907;SDS011;7545;52.092;7.006;2023-06-22T09:43:29;11.45;;;7.75;;
14907;SDS011;7545;52.092;7.006;2023-06-22T09:45:56;9.02;;;7.55;;
14907;SDS011;7545;52.092;7.006;2023-06-22T09:48:22;10.30;;;8.60;;
14907;SDS011;7545;52.092;7.006;2023-06-22T09:50:47;10.18;;;8.57;;
14907;SDS011;7545;52.092;7.006;2023-06-22T09:53:13;12.68;;;9.88;;
14907;SDS011;7545;52.092;7.006;2023-06-22T09:55:39;12.00;;;8.45;;
14907;SDS011;7545;52.092;7.006;2023-06-22T09:58:10;10.90;;;8.90;;
14907;SDS011;7545;52.092;7.006;2023-06-22T10:00:36;11.00;;;6.75;;
14907;SDS011;7545;52.092;7.006;2023-06-22T10:03:01;9.93;;;8.88;;
14907;SDS011;7545;52.092;7.006;2023-06-22T10:05:27;10.82;;;8.68;;
14907;SDS011;7545;52.092;7.006;2023-06-22T10:07:54;12.65;;;9.57;;
14907;SDS011;7545;52.092;7.006;2023-06-22T10:10:19;10.02;;;8.25;;
14907;SDS011;7545;52.092;7.006;2023-06-22T10:12:46;9.40;;;7.85;;
14907;SDS011;7545;52.092;7.006;2023-06-22T10:15:13;7.88;;;6.88;;
14907;SDS011;7545;52.092;7.006;2023-06-22T10:17:39;10.25;;;8.30;;
14907;SDS011;7545;52.092;7.006;2023-06-22T10:20:08;9.55;;;7.57;;
14907;SDS011;7545;52.092;7.006;2023-06-22T10:22:40;10.20;;;8.45;;
14907;SDS011;7545;52.092;7.006;2023-06-22T10:25:08;11.18;;;9.10;;
14907;SDS011;7545;52.092;7.006;2023-06-22T10:27:34;10.85;;;8.60;;
14907;SDS011;7545;52.092;7.006;2023-06-22T10:30:00;10.02;;;8.10;;
14907;SDS011;7545;52.092;7.006;2023-06-22T10:32:26;11.63;;;9.02;;
14907;SDS011;7545;52.092;7.006;2023-06-22T10:34:53;10.52;;;8.68;;
14907;SDS011;7545;52.092;7.006;2023-06-22T10:37:18;11.20;;;8.68;;
14907;SDS011;7545;52.092;7.006;2023-06-22T10:39:44;9.85;;;8.10;;
14907;SDS011;7545;52.092;7.006;2023-06-22T10:42:09;11.35;;;9.43;;
14907;SDS011;7545;52.092;7.006;2023-06-22T10:44:35;10.48;;;8.93;;
14907;SDS011;7545;52.092;7.006;2023-06-22T10:47:00;9.43;;;8.43;;
14907;SDS011;7545;52.092;7.006;2023-06-22T10:49:26;12.30;;;8.70;;
14907;SDS011;7545;52.092;7.006;2023-06-22T10:51:52;10.68;;;7.90;;
14907;SDS011;7545;52.092;7.006;2023-06-22T10:54:17;13.80;;;8.98;;
14907;SDS011;7545;52.092;7.006;2023-06-22T10:56:44;13.73;;;9.98;;
14907;SDS011;7545;52.092;7.006;2023-06-22T10:59:10;12.13;;;10.82;;
14907;SDS011;7545;52.092;7.006;2023-06-22T11:01:35;11.07;;;8.80;;
14907;SDS011;7545;52.092;7.006;2023-06-22T11:04:01;12.10;;;8.68;;
14907;SDS011;7545;52.092;7.006;2023-06-22T11:06:28;10.50;;;8.85;;
14907;SDS011;7545;52.092;7.006;2023-06-22T11:08:53;10.70;;;8.75;;
14907;SDS011;7545;52.092;7.006;2023-06-22T11:11:19;10.43;;;9.05;;
14907;SDS011;7545;52.092;7.006;2023-06-22T11:13:44;11.18;;;7.82;;
14907;SDS011;7545;52.092;7.006;2023-06-22T11:16:10;11.27;;;9.88;;
14907;SDS011;7545;52.092;7.006;2023-06-22T11:18:36;13.63;;;10.20;;
14907;SDS011;7545;52.092;7.006;2023-06-22T11:21:02;11.75;;;10.40;;
14907;SDS011;7545;52.092;7.006;2023-06-22T11:23:27;11.35;;;9.82;;
14907;SDS011;7545;52.092;7.006;2023-06-22T11:25:53;13.15;;;10.57;;
14907;SDS011;7545;52.092;7.006;2023-06-22T11:28:19;11.40;;;10.25;;
14907;SDS011;7545;52.092;7.006;2023-06-22T11:30:45;13.18;;;11.02;;
14907;SDS011;7545;52.092;7.006;2023-06-22T11:33:13;12.07;;;9.65;;
14907;SDS011;7545;52.092;7.006;2023-06-22T11:35:39;12.50;;;9.93;;
14907;SDS011;7545;52.092;7.006;2023-06-22T11:38:05;12.10;;;10.38;;
14907;SDS011;7545;52.092;7.006;2023-06-22T11:40:30;12.55;;;11.02;;
14907;SDS011;7545;52.092;7.006;2023-06-22T11:42:56;9.35;;;8.43;;
14907;SDS011;7545;52.092;7.006;2023-06-22T11:45:22;14.52;;;10.13;;
14907;SDS011;7545;52.092;7.006;2023-06-22T11:47:47;14.02;;;9.73;;
14907;SDS011;7545;52.092;7.006;2023-06-22T11:50:13;11.38;;;9.07;;
14907;SDS011;7545;52.092;7.006;2023-06-22T11:52:39;13.95;;;10.32;;
14907;SDS011;7545;52.092;7.006;2023-06-22T11:55:04;11.68;;;9.48;;
14907;SDS011;7545;52.092;7.006;2023-06-22T11:57:35;13.93;;;10.27;;
14907;SDS011;7545;52.092;7.006;2023-06-22T12:00:02;10.77;;;9.65;;
14907;SDS011;7545;52.092;7.006;2023-06-22T12:02:49;10.43;;;9.05;;
14907;SDS011;7545;52.092;7.006;2023-06-22T12:05:20;12.02;;;9.80;;
14907;SDS011;7545;52.092;7.006;2023-06-22T12:07:47;10.35;;;9.20;;
14907;SDS011;7545;52.092;7.006;2023-06-22T12:10:13;11.65;;;9.55;;
14907;SDS011;7545;52.092;7.006;2023-06-22T12:12:39;11.25;;;9.10;;
14907;SDS011;7545;52.092;7.006;2023-06-22T12:15:08;12.77;;;9.45;;
14907;SDS011;7545;52.092;7.006;2023-06-22T12:17:35;10.77;;;8.93;;
14907;SDS011;7545;52.092;7.006;2023-06-22T12:20:00;10.95;;;9.40;;
14907;SDS011;7545;52.092;7.006;2023-06-22T12:22:27;10.90;;;9.57;;
14907;SDS011;7545;52.092;7.006;2023-06-22T12:24:53;12.18;;;9.88;;
14907;SDS011;7545;52.092;7.006;2023-06-22T12:27:18;10.27;;;9.20;;
14907;SDS011;7545;52.092;7.006;2023-06-22T12:29:47;12.70;;;9.55;;
14907;SDS011;7545;52.092;7.006;2023-06-22T12:32:13;9.18;;;8.25;;
14907;SDS011;7545;52.092;7.006;2023-06-22T12:34:39;12.10;;;9.70;;
14907;SDS011;7545;52.092;7.006;2023-06-22T12:37:05;10.13;;;9.05;;
14907;SDS011;7545;52.092;7.006;2023-06-22T12:39:31;10.77;;;9.20;;
14907;SDS011;7545;52.092;7.006;2023-06-22T12:41:57;11.63;;;9.80;;
14907;SDS011;7545;52.092;7.006;2023-06-22T12:44:23;13.35;;;10.15;;
14907;SDS011;7545;52.092;7.006;2023-06-22T12:46:49;12.90;;;10.85;;
14907;SDS011;7545;52.092;7.006;2023-06-22T12:49:14;13.18;;;10.80;;
14907;SDS011;7545;52.092;7.006;2023-06-22T12:51:41;12.57;;;10.48;;
14907;SDS011;7545;52.092;7.006;2023-06-22T12:54:07;13.57;;;11.35;;
14907;SDS011;7545;52.092;7.006;2023-06-22T12:56:33;12.80;;;10.43;;
14907;SDS011;7545;52.092;7.006;2023-06-22T12:58:59;16.08;;;11.93;;
14907;SDS011;7545;52.092;7.006;2023-06-22T13:01:27;14.73;;;10.70;;
14907;SDS011;7545;52.092;7.006;2023-06-22T13:03:53;16.38;;;12.48;;
14907;SDS011;7545;52.092;7.006;2023-06-22T13:06:19;14.95;;;11.10;;
14907;SDS011;7545;52.092;7.006;2023-06-22T13:08:45;13.25;;;11.45;;
14907;SDS011;7545;52.092;7.006;2023-06-22T13:11:10;13.25;;;11.38;;
14907;SDS011;7545;52.092;7.006;2023-06-22T13:13:36;12.77;;;10.90;;
14907;SDS011;7545;52.092;7.006;2023-06-22T13:16:01;13.25;;;11.38;;
14907;SDS011;7545;52.092;7.006;2023-06-22T13:18:27;13.65;;;11.13;;
14907;SDS011;7545;52.092;7.006;2023-06-22T13:20:52;12.98;;;10.70;;
14907;SDS011;7545;52.092;7.006;2023-06-22T13:23:19;13.95;;;12.25;;
14907;SDS011;7545;52.092;7.006;2023-06-22T13:25:46;14.75;;;12.48;;
14907;SDS011;7545;52.092;7.006;2023-06-22T13:28:12;13.95;;;12.10;;
14907;SDS011;7545;52.092;7.006;2023-06-22T13:30:38;16.80;;;12.73;;
14907;SDS011;7545;52.092;7.006;2023-06-22T13:33:05;14.63;;;12.18;;
14907;SDS011;7545;52.092;7.006;2023-06-22T13:35:31;15.95;;;12.85;;
14907;SDS011;7545;52.092;7.006;2023-06-22T13:37:56;14.40;;;12.55;;
14907;SDS011;7545;52.092;7.006;2023-06-22T13:40:22;16.98;;;13.32;;
14907;SDS011;7545;52.092;7.006;2023-06-22T13:42:48;17.83;;;13.05;;
14907;SDS011;7545;52.092;7.006;2023-06-22T13:45:13;15.32;;;12.95;;
14907;SDS011;7545;52.092;7.006;2023-06-22T13:47:41;20.20;;;12.65;;
14907;SDS011;7545;52.092;7.006;2023-06-22T13:50:10;15.63;;;12.10;;
14907;SDS011;7545;52.092;7.006;2023-06-22T13:52:37;14.13;;;12.63;;
14907;SDS011;7545;52.092;7.006;2023-06-22T13:55:03;15.90;;;13.05;;
14907;SDS011;7545;52.092;7.006;2023-06-22T13:57:30;17.55;;;13.48;;
14907;SDS011;7545;52.092;7.006;2023-06-22T13:59:56;17.42;;;13.90;;
14907;SDS011;7545;52.092;7.006;2023-06-22T14:02:21;18.25;;;13.50;;
14907;SDS011;7545;52.092;7.006;2023-06-22T14:04:47;16.83;;;12.88;;
14907;SDS011;7545;52.092;7.006;2023-06-22T14:07:13;15.02;;;13.20;;
14907;SDS011;7545;52.092;7.006;2023-06-22T14:09:38;14.55;;;13.05;;
14907;SDS011;7545;52.092;7.006;2023-06-22T14:12:04;16.60;;;13.23;;
14907;SDS011;7545;52.092;7.006;2023-06-22T14:14:31;18.10;;;13.93;;
14907;SDS011;7545;52.092;7.006;2023-06-22T14:16:57;15.07;;;13.35;;
14907;SDS011;7545;52.092;7.006;2023-06-22T14:19:23;15.15;;;13.25;;
14907;SDS011;7545;52.092;7.006;2023-06-22T14:21:49;15.32;;;12.70;;
14907;SDS011;7545;52.092;7.006;2023-06-22T14:24:15;16.70;;;13.63;;
14907;SDS011;7545;52.092;7.006;2023-06-22T14:26:41;14.50;;;12.80;;
14907;SDS011;7545;52.092;7.006;2023-06-22T14:29:06;17.88;;;13.25;;
14907;SDS011;7545;52.092;7.006;2023-06-22T14:31:32;15.93;;;13.80;;
14907;SDS011;7545;52.092;7.006;2023-06-22T14:33:57;15.70;;;14.05;;
14907;SDS011;7545;52.092;7.006;2023-06-22T14:36:23;17.90;;;14.90;;
14907;SDS011;7545;52.092;7.006;2023-06-22T14:38:49;14.88;;;13.23;;
14907;SDS011;7545;52.092;7.006;2023-06-22T14:41:14;16.45;;;13.85;;
14907;SDS011;7545;52.092;7.006;2023-06-22T14:43:48;16.38;;;13.63;;
14907;SDS011;7545;52.092;7.006;2023-06-22T14:46:15;16.40;;;13.68;;
14907;SDS011;7545;52.092;7.006;2023-06-22T14:48:43;17.60;;;14.55;;
14907;SDS011;7545;52.092;7.006;2023-06-22T14:51:09;15.48;;;13.88;;